createdAt,value
2023-05-19T00:01:55.018Z,10.40
2023-05-19T00:04:22.526Z,10.40
2023-05-19T00:06:51.519Z,10.50
2023-05-19T00:09:18.727Z,10.50
2023-05-19T00:11:45.922Z,10.50
2023-05-19T00:14:13.416Z,10.30
2023-05-19T00:16:42.212Z,10.00
2023-05-19T00:19:10.056Z,10.10
2023-05-19T00:21:40.565Z,10.30
2023-05-19T00:24:07.497Z,10.30
2023-05-19T00:26:34.397Z,10.00
2023-05-19T00:29:05.922Z,9.90
2023-05-19T00:31:34.148Z,9.90
2023-05-19T00:34:01.516Z,9.90
2023-05-19T00:36:28.882Z,9.80
2023-05-19T00:38:56.999Z,9.80
2023-05-19T00:41:23.782Z,9.80
2023-05-19T00:43:51.301Z,9.70
2023-05-19T00:46:19.422Z,9.60
2023-05-19T00:48:46.488Z,9.60
2023-05-19T00:51:16.838Z,9.50
2023-05-19T00:53:48.510Z,9.50
2023-05-19T00:56:16.774Z,9.20
2023-05-19T00:58:44.609Z,9.40
2023-05-19T01:01:14.453Z,9.10
2023-05-19T01:03:43.548Z,9.30
2023-05-19T01:06:12.153Z,9.30
2023-05-19T01:08:39.430Z,9.20
2023-05-19T01:11:07.562Z,9.20
2023-05-19T01:13:36.319Z,9.10
2023-05-19T01:16:21.380Z,9.10
2023-05-19T01:19:02.279Z,9.20
2023-05-19T01:21:53.784Z,9.10
2023-05-19T01:24:51.605Z,9.10
2023-05-19T01:28:06.357Z,9.20
2023-05-19T01:30:40.610Z,8.90
2023-05-19T01:33:12.054Z,8.80
2023-05-19T01:35:40.902Z,8.90
2023-05-19T01:38:12.298Z,8.90
2023-05-19T01:40:42.035Z,8.80
2023-05-19T01:43:11.754Z,8.70
2023-05-19T01:45:40.142Z,8.60
2023-05-19T01:48:10.603Z,8.50
2023-05-19T01:50:39.348Z,8.60
2023-05-19T01:53:07.334Z,8.50
2023-05-19T01:55:40.325Z,8.60
2023-05-19T01:58:19.408Z,8.60
2023-05-19T02:00:52.128Z,8.50
2023-05-19T02:03:54.123Z,8.50
2023-05-19T02:06:46.405Z,8.50
2023-05-19T02:09:20.333Z,8.30
2023-05-19T02:11:54.812Z,8.40
2023-05-19T02:14:45.883Z,8.30
2023-05-19T02:17:16.079Z,8.30
2023-05-19T02:19:43.525Z,8.30
2023-05-19T02:22:10.571Z,8.20
2023-05-19T02:24:37.767Z,8.30
2023-05-19T02:27:04.831Z,8.20
2023-05-19T02:29:31.616Z,8.20
2023-05-19T02:32:00.448Z,8.20
2023-05-19T02:34:27.334Z,8.30
2023-05-19T02:36:54.152Z,8.20
2023-05-19T02:39:21.174Z,8.10
2023-05-19T02:41:48.008Z,8.10
2023-05-19T02:44:15.004Z,8.00
2023-05-19T02:46:41.992Z,8.10
2023-05-19T02:49:09.197Z,8.10
2023-05-19T02:51:35.964Z,8.00
2023-05-19T02:54:02.821Z,8.00
2023-05-19T02:56:29.597Z,7.80
2023-05-19T02:58:56.739Z,7.90
2023-05-19T03:01:23.582Z,7.90
2023-05-19T03:03:50.625Z,7.90
2023-05-19T03:06:18.207Z,7.90
2023-05-19T03:08:45.122Z,7.90
2023-05-19T03:11:12.329Z,7.90
2023-05-19T03:13:39.103Z,7.90
2023-05-19T03:16:08.429Z,7.90
2023-05-19T03:18:36.075Z,7.90
2023-05-19T03:21:02.959Z,8.00
2023-05-19T03:23:29.954Z,7.90
2023-05-19T03:25:56.697Z,7.90
2023-05-19T03:28:23.583Z,8.00
2023-05-19T03:30:50.990Z,7.80
2023-05-19T03:33:20.922Z,7.90
2023-05-19T03:35:48.360Z,7.90
2023-05-19T03:38:16.114Z,7.90
2023-05-19T03:40:50.871Z,8.00
2023-05-19T03:43:17.672Z,7.90
2023-05-19T03:45:49.579Z,7.90
2023-05-19T03:48:35.512Z,7.90
2023-05-19T03:51:17.890Z,7.90
2023-05-19T03:53:47.001Z,7.80
2023-05-19T03:56:14.042Z,7.90
2023-05-19T03:58:44.340Z,7.90
2023-05-19T04:01:11.855Z,8.00
2023-05-19T04:03:38.856Z,8.00
2023-05-19T04:06:05.955Z,8.00
2023-05-19T04:08:32.973Z,8.00
2023-05-19T04:10:59.810Z,8.10
2023-05-19T04:13:26.653Z,8.10
2023-05-19T04:15:53.494Z,8.10
2023-05-19T04:18:20.677Z,8.20
2023-05-19T04:20:47.744Z,7.90
2023-05-19T04:23:14.570Z,8.00
2023-05-19T04:25:42.054Z,7.70
2023-05-19T04:28:09.256Z,8.10
2023-05-19T04:30:38.743Z,8.20
2023-05-19T04:33:05.627Z,8.30
2023-05-19T04:35:33.021Z,8.40
2023-05-19T04:38:01.678Z,8.50
2023-05-19T04:40:31.790Z,8.60
2023-05-19T04:42:59.067Z,8.60
2023-05-19T04:45:26.126Z,8.70
2023-05-19T04:47:58.213Z,8.50
2023-05-19T04:50:25.533Z,8.70
2023-05-19T04:52:52.986Z,8.70
2023-05-19T04:55:20.241Z,8.60
2023-05-19T04:57:48.402Z,8.60
2023-05-19T05:00:15.644Z,8.80
2023-05-19T05:02:53.046Z,8.90
2023-05-19T05:05:21.567Z,9.00
2023-05-19T05:07:49.459Z,9.00
2023-05-19T05:10:17.000Z,9.10
2023-05-19T05:12:44.108Z,9.10
2023-05-19T05:15:11.538Z,9.20
2023-05-19T05:17:38.858Z,9.20
2023-05-19T05:20:06.989Z,9.30
2023-05-19T05:22:34.790Z,9.40
2023-05-19T05:25:02.964Z,9.50
2023-05-19T05:27:29.792Z,9.50
2023-05-19T05:29:59.130Z,9.60
2023-05-19T05:32:28.756Z,9.60
2023-05-19T05:34:56.089Z,9.80
2023-05-19T05:37:22.950Z,9.80
2023-05-19T05:39:49.922Z,9.80
2023-05-19T05:42:16.764Z,9.70
2023-05-19T05:44:43.947Z,9.80
2023-05-19T05:47:12.214Z,10.00
2023-05-19T05:49:40.272Z,10.00
2023-05-19T05:52:09.352Z,10.00
2023-05-19T05:54:42.956Z,10.20
2023-05-19T05:57:10.726Z,10.20
2023-05-19T05:59:38.678Z,10.40
2023-05-19T06:02:05.662Z,10.50
2023-05-19T06:04:33.482Z,10.50
2023-05-19T06:07:01.759Z,10.60
2023-05-19T06:09:33.384Z,10.50
2023-05-19T06:12:01.165Z,10.60
2023-05-19T06:14:36.267Z,10.60
2023-05-19T06:17:12.289Z,10.80
2023-05-19T06:19:39.258Z,10.80
2023-05-19T06:22:06.324Z,10.70
2023-05-19T06:24:33.826Z,10.80
2023-05-19T06:27:00.794Z,10.90
2023-05-19T06:29:27.604Z,11.00
2023-05-19T06:31:57.077Z,11.10
2023-05-19T06:34:24.690Z,11.30
2023-05-19T06:36:51.470Z,11.40
2023-05-19T06:39:19.504Z,11.40
2023-05-19T06:41:46.429Z,11.50
2023-05-19T06:44:27.168Z,11.60
2023-05-19T06:46:53.960Z,11.80
2023-05-19T06:49:21.213Z,11.90
2023-05-19T06:51:49.214Z,12.00
2023-05-19T06:54:16.399Z,12.10
2023-05-19T06:56:43.442Z,12.10
2023-05-19T06:59:11.063Z,12.20
2023-05-19T07:01:38.784Z,12.30
2023-05-19T07:04:06.053Z,12.50
2023-05-19T07:06:33.975Z,12.60
2023-05-19T07:09:01.179Z,12.80
2023-05-19T07:11:28.647Z,12.80
2023-05-19T07:13:56.233Z,12.80
2023-05-19T07:16:27.559Z,13.00
2023-05-19T07:18:55.232Z,13.00
2023-05-19T07:21:22.167Z,13.20
2023-05-19T07:23:49.917Z,13.20
2023-05-19T07:26:16.793Z,13.30
2023-05-19T07:28:43.610Z,13.40
2023-05-19T07:31:10.609Z,13.50
2023-05-19T07:33:37.652Z,13.70
2023-05-19T07:36:04.641Z,13.70
2023-05-19T07:38:49.907Z,13.70
2023-05-19T07:41:16.889Z,13.90
2023-05-19T07:43:43.722Z,13.90
2023-05-19T07:46:10.954Z,13.90
2023-05-19T07:48:37.844Z,13.80
2023-05-19T07:51:04.898Z,13.90
2023-05-19T07:53:31.671Z,14.00
2023-05-19T07:55:58.874Z,14.00
2023-05-19T07:58:26.099Z,14.00
2023-05-19T08:00:53.348Z,14.00
2023-05-19T08:03:20.874Z,14.00
2023-05-19T08:05:48.240Z,14.00
2023-05-19T08:08:16.671Z,14.00
2023-05-19T08:10:43.779Z,14.20
2023-05-19T08:13:10.615Z,14.20
2023-05-19T08:15:37.750Z,14.20
2023-05-19T08:18:05.357Z,14.40
2023-05-19T08:20:33.266Z,14.40
2023-05-19T08:23:00.530Z,14.40
2023-05-19T08:25:27.604Z,14.50
2023-05-19T08:27:54.383Z,14.50
2023-05-19T08:30:21.315Z,14.60
2023-05-19T08:32:48.882Z,14.60
2023-05-19T08:35:15.895Z,14.70
2023-05-19T08:37:44.046Z,14.90
2023-05-19T08:40:17.298Z,15.00
2023-05-19T08:42:45.764Z,15.20
2023-05-19T08:45:13.940Z,15.40
2023-05-19T08:47:47.224Z,15.40
2023-05-19T08:50:21.308Z,15.40
2023-05-19T08:52:53.508Z,15.60
2023-05-19T08:55:53.303Z,15.60
2023-05-19T08:58:21.938Z,15.70
2023-05-19T09:03:23.221Z,15.80
2023-05-19T09:05:51.329Z,15.80
2023-05-19T09:08:18.448Z,15.80
2023-05-19T09:10:45.292Z,15.70
2023-05-19T09:13:12.202Z,15.70
2023-05-19T09:15:41.284Z,15.70
2023-05-19T09:18:12.559Z,15.80
2023-05-19T09:20:48.234Z,15.90
2023-05-19T09:23:16.374Z,16.00
2023-05-19T09:25:53.490Z,16.10
2023-05-19T09:28:33.237Z,16.30
2023-05-19T09:31:08.373Z,16.40
2023-05-19T09:33:37.855Z,16.60
2023-05-19T09:36:07.126Z,16.70
2023-05-19T09:38:35.778Z,16.80
2023-05-19T09:41:03.335Z,17.00
2023-05-19T09:43:31.787Z,17.10
2023-05-19T09:46:06.132Z,17.30
2023-05-19T09:48:34.736Z,17.40
2023-05-19T09:51:02.471Z,17.50
2023-05-19T09:53:34.019Z,17.20
2023-05-19T09:56:02.257Z,17.10
2023-05-19T09:58:36.919Z,17.00
2023-05-19T10:01:04.637Z,16.70
2023-05-19T10:03:33.040Z,16.80
2023-05-19T10:06:01.667Z,16.90
2023-05-19T10:08:30.705Z,16.90
2023-05-19T10:10:58.629Z,16.90
2023-05-19T10:13:26.732Z,16.90
2023-05-19T10:15:58.914Z,17.10
2023-05-19T10:18:27.774Z,17.10
2023-05-19T10:20:55.038Z,17.20
2023-05-19T10:23:22.503Z,17.10
2023-05-19T10:25:52.860Z,17.20
2023-05-19T10:28:24.896Z,17.20
2023-05-19T10:30:56.641Z,17.00
2023-05-19T10:33:47.582Z,17.10
2023-05-19T10:36:23.637Z,17.20
2023-05-19T10:38:50.411Z,17.20
2023-05-19T10:41:27.517Z,17.20
2023-05-19T10:44:12.816Z,17.20
2023-05-19T10:46:41.548Z,17.30
2023-05-19T10:49:08.482Z,17.20
2023-05-19T10:51:36.226Z,17.30
2023-05-19T10:54:08.813Z,17.30
2023-05-19T10:56:42.389Z,17.40
2023-05-19T10:59:34.615Z,17.50
2023-05-19T11:02:05.712Z,17.50
2023-05-19T11:04:51.863Z,17.40
2023-05-19T11:07:24.584Z,17.40
2023-05-19T11:09:54.666Z,17.40
2023-05-19T11:12:24.638Z,17.40
2023-05-19T11:14:54.310Z,17.50
2023-05-19T11:17:22.231Z,17.50
2023-05-19T11:19:56.538Z,17.60
2023-05-19T11:22:27.573Z,17.50
2023-05-19T11:24:58.024Z,17.40
2023-05-19T11:27:26.326Z,17.30
2023-05-19T11:29:55.232Z,17.40
2023-05-19T11:32:25.791Z,17.30
2023-05-19T11:34:53.800Z,17.30
2023-05-19T11:37:21.011Z,17.50
2023-05-19T11:39:48.253Z,17.30
2023-05-19T11:42:15.123Z,17.40
2023-05-19T11:44:46.295Z,17.40
2023-05-19T11:47:16.840Z,17.40
2023-05-19T11:49:46.031Z,17.20
2023-05-19T11:52:13.148Z,17.20
2023-05-19T11:54:41.910Z,17.40
2023-05-19T11:57:11.117Z,17.50
2023-05-19T11:59:41.063Z,17.50
2023-05-19T12:02:17.049Z,17.60
2023-05-19T12:04:43.910Z,17.60
2023-05-19T12:07:17.572Z,17.60
2023-05-19T12:09:48.226Z,17.60
2023-05-19T12:12:17.323Z,17.50
2023-05-19T12:14:46.116Z,17.40
2023-05-19T12:17:14.765Z,17.40
2023-05-19T12:19:44.513Z,17.50
2023-05-19T12:22:12.189Z,17.60
2023-05-19T12:24:40.221Z,17.70
2023-05-19T12:27:18.204Z,17.80
2023-05-19T12:29:53.279Z,17.70
2023-05-19T12:32:25.381Z,18.00
2023-05-19T12:34:53.239Z,18.10
2023-05-19T12:37:20.693Z,18.10
2023-05-19T12:39:50.155Z,18.10
2023-05-19T12:42:17.169Z,18.30
2023-05-19T12:44:46.849Z,18.60
2023-05-19T12:47:18.726Z,18.50
2023-05-19T12:50:18.276Z,18.50
2023-05-19T12:52:47.545Z,18.70
2023-05-19T12:55:16.504Z,18.90
2023-05-19T12:57:45.099Z,18.80
2023-05-19T13:00:25.474Z,18.70
2023-05-19T13:03:17.042Z,18.90
2023-05-19T13:05:50.438Z,19.00
2023-05-19T13:08:20.041Z,18.90
2023-05-19T13:10:49.095Z,18.80
2023-05-19T13:13:16.658Z,18.90
2023-05-19T13:15:46.382Z,19.00
2023-05-19T13:18:14.380Z,19.10
2023-05-19T13:20:43.080Z,19.10
2023-05-19T13:23:14.311Z,19.00
2023-05-19T13:25:42.123Z,18.90
2023-05-19T13:28:09.665Z,19.10
2023-05-19T13:30:39.446Z,19.20
2023-05-19T13:33:06.534Z,19.10
2023-05-19T13:35:39.337Z,19.10
2023-05-19T13:38:07.914Z,19.10
2023-05-19T13:40:35.209Z,19.10
2023-05-19T13:43:02.862Z,19.10
2023-05-19T13:45:29.954Z,19.00
2023-05-19T13:47:57.068Z,19.10
2023-05-19T13:50:24.290Z,19.20
2023-05-19T13:52:51.095Z,19.30
2023-05-19T13:55:18.205Z,19.20
2023-05-19T13:57:45.023Z,19.20
2023-05-19T14:00:12.176Z,19.30
2023-05-19T14:02:40.041Z,19.30
2023-05-19T14:05:07.812Z,19.40
2023-05-19T14:07:35.265Z,19.40
2023-05-19T14:10:03.970Z,19.30
2023-05-19T14:12:41.647Z,19.30
2023-05-19T14:15:14.572Z,19.30
2023-05-19T14:17:41.951Z,19.20
2023-05-19T14:20:09.649Z,19.30
2023-05-19T14:22:36.559Z,19.30
2023-05-19T14:25:03.675Z,19.30
2023-05-19T14:27:31.555Z,19.30
2023-05-19T14:29:58.755Z,19.30
2023-05-19T14:32:27.370Z,19.40
2023-05-19T14:34:56.289Z,19.50
2023-05-19T14:37:23.188Z,19.50
2023-05-19T14:39:50.196Z,19.40
2023-05-19T14:42:17.029Z,19.50
2023-05-19T14:44:43.967Z,19.60
2023-05-19T14:47:12.332Z,19.60
2023-05-19T14:49:39.338Z,19.80
2023-05-19T14:52:06.319Z,19.60
2023-05-19T14:54:33.910Z,19.50
2023-05-19T14:57:01.555Z,19.40
2023-05-19T14:59:29.634Z,19.30
2023-05-19T15:01:56.868Z,19.40
2023-05-19T15:04:24.064Z,19.50
2023-05-19T15:07:05.850Z,19.50
2023-05-19T15:09:36.860Z,19.50
2023-05-19T15:12:04.014Z,19.50
2023-05-19T15:14:31.345Z,19.60
2023-05-19T15:16:59.360Z,19.80
2023-05-19T15:19:26.632Z,19.80
2023-05-19T15:21:54.175Z,19.80
2023-05-19T15:24:21.121Z,19.90
2023-05-19T15:26:48.446Z,19.80
2023-05-19T15:29:15.382Z,19.60
2023-05-19T15:31:42.345Z,19.80
2023-05-19T15:34:09.672Z,19.70
2023-05-19T15:36:37.227Z,19.70
2023-05-19T15:39:05.018Z,19.60
2023-05-19T15:41:31.847Z,19.50
2023-05-19T15:44:02.435Z,19.70
2023-05-19T15:46:29.883Z,19.80
2023-05-19T15:48:56.874Z,19.70
2023-05-19T15:51:24.246Z,19.70
2023-05-19T15:53:51.636Z,19.70
2023-05-19T15:56:21.612Z,19.70
2023-05-19T15:58:48.551Z,19.50
2023-05-19T16:01:16.761Z,19.50
2023-05-19T16:03:44.549Z,19.60
2023-05-19T16:06:11.596Z,19.50
2023-05-19T16:08:38.382Z,19.40
2023-05-19T16:11:05.331Z,19.50
2023-05-19T16:13:33.606Z,19.60
2023-05-19T16:16:00.572Z,19.50
2023-05-19T16:18:29.220Z,19.50
2023-05-19T16:20:56.763Z,19.50
2023-05-19T16:23:24.792Z,19.40
2023-05-19T16:25:51.704Z,19.50
2023-05-19T16:28:18.569Z,19.40
2023-05-19T16:30:46.124Z,19.40
2023-05-19T16:33:13.273Z,19.50
2023-05-19T16:35:40.199Z,19.50
2023-05-19T16:38:07.004Z,19.40
2023-05-19T16:40:34.013Z,19.40
2023-05-19T16:43:01.191Z,19.40
2023-05-19T16:45:28.398Z,19.40
2023-05-19T16:47:55.351Z,19.30
2023-05-19T16:50:22.549Z,19.30
2023-05-19T16:52:49.333Z,19.30
2023-05-19T16:55:19.684Z,19.30
2023-05-19T16:57:46.958Z,19.30
2023-05-19T17:00:14.558Z,19.30
2023-05-19T17:02:41.632Z,19.40
2023-05-19T17:05:09.113Z,19.40
2023-05-19T17:07:35.916Z,19.30
2023-05-19T17:10:02.773Z,19.20
2023-05-19T17:12:29.683Z,19.10
2023-05-19T17:14:57.072Z,19.10
2023-05-19T17:17:23.870Z,19.10
2023-05-19T17:19:50.699Z,19.10
2023-05-19T17:22:17.634Z,19.10
2023-05-19T17:24:44.631Z,19.10
2023-05-19T17:27:11.391Z,19.00
2023-05-19T17:29:38.207Z,19.00
2023-05-19T17:32:05.253Z,18.90
2023-05-19T17:34:32.736Z,19.00
2023-05-19T17:36:59.511Z,18.90
2023-05-19T17:39:26.679Z,18.90
2023-05-19T17:41:53.546Z,18.90
2023-05-19T17:44:20.310Z,18.90
2023-05-19T17:46:47.152Z,18.80
2023-05-19T17:49:15.237Z,18.90
2023-05-19T17:51:42.615Z,18.80
2023-05-19T17:54:09.612Z,18.80
2023-05-19T17:56:42.274Z,18.70
2023-05-19T17:59:09.620Z,18.70
2023-05-19T18:01:37.130Z,18.70
2023-05-19T18:04:04.444Z,18.50
2023-05-19T18:06:32.210Z,18.50
2023-05-19T18:09:02.469Z,18.50
2023-05-19T18:11:29.596Z,18.40
2023-05-19T18:13:57.312Z,18.40
2023-05-19T18:16:24.311Z,18.40
2023-05-19T18:18:51.174Z,18.30
2023-05-19T18:21:18.150Z,18.30
2023-05-19T18:23:45.657Z,18.30
2023-05-19T18:26:13.112Z,18.40
2023-05-19T18:28:40.756Z,18.30
2023-05-19T18:31:17.262Z,18.30
2023-05-19T18:33:44.327Z,18.20
2023-05-19T18:36:11.182Z,18.10
2023-05-19T18:38:37.961Z,18.10
2023-05-19T18:41:07.163Z,18.10
2023-05-19T18:43:34.674Z,18.10
2023-05-19T18:46:01.538Z,18.10
2023-05-19T18:48:29.452Z,18.10
2023-05-19T18:50:57.164Z,18.00
2023-05-19T18:53:24.012Z,18.00
2023-05-19T18:55:50.867Z,17.90
2023-05-19T18:58:18.627Z,17.90
2023-05-19T19:00:45.641Z,17.90
2023-05-19T19:03:12.633Z,17.80
2023-05-19T19:05:39.935Z,17.70
2023-05-19T19:08:06.890Z,17.80
2023-05-19T19:10:37.363Z,17.70
2023-05-19T19:13:04.234Z,17.70
2023-05-19T19:15:31.634Z,17.70
2023-05-19T19:17:58.709Z,17.70
2023-05-19T19:20:25.534Z,17.70
2023-05-19T19:22:53.478Z,17.60
2023-05-19T19:25:23.126Z,17.60
2023-05-19T19:27:50.607Z,17.50
2023-05-19T19:30:17.478Z,17.60
2023-05-19T19:32:44.587Z,17.50
2023-05-19T19:35:11.517Z,17.50
2023-05-19T19:37:38.327Z,17.40
2023-05-19T19:40:06.177Z,17.50
2023-05-19T19:42:33.206Z,17.40
2023-05-19T19:45:00.513Z,17.40
2023-05-19T19:47:27.633Z,17.30
2023-05-19T19:49:54.533Z,17.30
2023-05-19T19:52:21.575Z,17.30
2023-05-19T19:54:48.481Z,17.20
2023-05-19T19:57:17.248Z,17.10
2023-05-19T19:59:44.160Z,17.00
2023-05-19T20:02:11.036Z,17.10
2023-05-19T20:04:38.284Z,17.00
2023-05-19T20:07:05.318Z,17.00
2023-05-19T20:09:32.138Z,17.00
2023-05-19T20:11:58.899Z,17.00
2023-05-19T20:14:26.018Z,17.00
2023-05-19T20:16:52.899Z,17.00
2023-05-19T20:19:19.750Z,16.90
2023-05-19T20:21:46.648Z,16.90
2023-05-19T20:24:13.646Z,16.90
2023-05-19T20:26:40.570Z,16.80
2023-05-19T20:29:07.425Z,16.90
2023-05-19T20:31:34.227Z,16.90
2023-05-19T20:34:01.894Z,16.80
2023-05-19T20:36:28.902Z,16.70
2023-05-19T20:38:55.724Z,16.80
2023-05-19T20:41:22.548Z,16.80
2023-05-19T20:43:49.368Z,16.80
2023-05-19T20:46:16.271Z,16.80
2023-05-19T20:48:43.134Z,16.80
2023-05-19T20:51:09.951Z,16.70
2023-05-19T20:53:36.816Z,16.80
2023-05-19T20:56:05.200Z,16.80
2023-05-19T20:58:32.238Z,16.80
2023-05-19T21:00:59.104Z,16.70
2023-05-19T21:03:27.153Z,16.70
2023-05-19T21:05:55.052Z,16.60
2023-05-19T21:08:22.220Z,16.60
2023-05-19T21:10:49.222Z,16.60
2023-05-19T21:13:16.238Z,16.60
2023-05-19T21:15:43.046Z,16.60
2023-05-19T21:18:11.493Z,16.60
2023-05-19T21:20:39.506Z,16.60
2023-05-19T21:23:06.360Z,16.60
2023-05-19T21:25:33.170Z,16.50
2023-05-19T21:28:00.083Z,16.40
2023-05-19T21:30:26.952Z,16.50
2023-05-19T21:32:53.850Z,16.40
2023-05-19T21:35:20.854Z,16.40
2023-05-19T21:37:47.692Z,16.50
2023-05-19T21:40:14.599Z,16.40
2023-05-19T21:42:41.396Z,16.40
2023-05-19T21:45:08.584Z,16.40
2023-05-19T21:47:35.857Z,16.40
2023-05-19T21:50:02.804Z,16.40
2023-05-19T21:52:30.321Z,16.30
2023-05-19T21:54:58.209Z,16.30
2023-05-19T21:57:25.021Z,16.20
2023-05-19T21:59:52.315Z,16.20
2023-05-19T22:02:19.229Z,16.30
2023-05-19T22:04:46.332Z,16.30
2023-05-19T22:07:13.201Z,16.30
2023-05-19T22:09:40.144Z,16.20
2023-05-19T22:12:07.478Z,16.10
2023-05-19T22:14:34.304Z,16.20
2023-05-19T22:17:01.101Z,16.10
2023-05-19T22:19:27.946Z,16.00
2023-05-19T22:22:01.977Z,16.00
2023-05-19T22:24:37.151Z,16.10
2023-05-19T22:27:04.226Z,16.00
2023-05-19T22:29:31.283Z,16.00
2023-05-19T22:31:58.085Z,15.90
2023-05-19T22:34:25.197Z,16.00
2023-05-19T22:36:51.973Z,15.90
2023-05-19T22:39:18.699Z,16.00
2023-05-19T22:41:45.771Z,16.00
2023-05-19T22:44:16.034Z,15.90
2023-05-19T22:46:44.289Z,15.80
2023-05-19T22:49:11.583Z,15.70
2023-05-19T22:51:39.329Z,15.80
2023-05-19T22:54:07.946Z,15.80
2023-05-19T22:56:34.768Z,15.80
2023-05-19T22:59:01.545Z,15.60
2023-05-19T23:01:28.435Z,15.50
2023-05-19T23:03:55.503Z,15.50
2023-05-19T23:06:22.408Z,15.50
2023-05-19T23:09:01.815Z,15.40
2023-05-19T23:11:28.596Z,15.50
2023-05-19T23:13:55.549Z,15.50
2023-05-19T23:16:22.643Z,15.40
2023-05-19T23:18:49.580Z,15.20
2023-05-19T23:21:16.465Z,15.10
2023-05-19T23:23:43.337Z,15.20
2023-05-19T23:26:10.445Z,15.20
2023-05-19T23:28:37.360Z,15.10
2023-05-19T23:31:04.274Z,15.10
2023-05-19T23:33:31.104Z,15.10
2023-05-19T23:35:59.013Z,15.00
2023-05-19T23:38:26.982Z,15.10
2023-05-19T23:40:53.741Z,14.90
2023-05-19T23:43:20.542Z,14.90
2023-05-19T23:45:47.316Z,14.90
2023-05-19T23:48:14.404Z,14.70
2023-05-19T23:50:41.258Z,14.90
2023-05-19T23:53:08.083Z,14.70
2023-05-19T23:55:35.280Z,14.60
2023-05-19T23:58:03.822Z,14.60
